KPVW/PVW METAR and TAF weather

Enter ICAO airport designator
Station Type Date Time Source
KPVW METAR 2020/07/02 19:15 UTC NOAA

KPVW 021915Z AUTO 14009KT 120V180 10SM CLR 35/13 A3002 RMK AO2 T03470131


Station Type Date Time Source
KPVW Decoded METAR 2020/07/02 19:15 UTC NOAA

Plainview, Hale County Airport, TX, United States (KPVW) 34-10-05N 101-43-02W
Jul 02, 2020 - 03:15 PM EDT / 2020.07.02 1915 UTC
Wind: from the SE (140 degrees) at 10 MPH (9 KT) (direction variable):0
Visibility: 10 mile(s):0
Sky conditions: clear
Temperature: 94.5 F (34.7 C)
Dew Point: 55.6 F (13.1 C)
Relative Humidity: 27%
Pressure (altimeter): 30.02 in. Hg (1016 hPa)
ob: KPVW 021915Z AUTO 14009KT 120V180 10SM CLR 35/13 A3002 RMK AO2 T03470131
cycle: 19

Station Type Date Time Source
KPVW TAF 2020/07/02 18:22 UTC NOAA

TAF KPVW 021720Z 0218/0318 15007KT P6SM FEW080
FM022100 15011KT P6SM VCTS FEW090CB SCT100
FM030000 15011KT P6SM SCT100 BKN110

Example: see airport list